sensor_id;sensor_type;location;lat;lon;timestamp;pressure;altitude;pressure_sealevel;temperature;humidity
5484;BME280;2764;48.794;8.326;2022-08-21T00:00:09;100009.44;;;16.65;87.48
5484;BME280;2764;48.794;8.326;2022-08-21T00:01:14;100015.47;;;16.67;87.62
5484;BME280;2764;48.794;8.326;2022-08-21T00:02:20;100011.03;;;16.68;87.26
5484;BME280;2764;48.794;8.326;2022-08-21T00:03:22;100014.53;;;16.68;88.15
5484;BME280;2764;48.794;8.326;2022-08-21T00:04:24;100007.94;;;16.61;89.11
5484;BME280;2764;48.794;8.326;2022-08-21T00:05:32;100006.25;;;16.60;88.11
5484;BME280;2764;48.794;8.326;2022-08-21T00:06:34;100014.16;;;16.60;88.24
5484;BME280;2764;48.794;8.326;2022-08-21T00:07:36;100016.06;;;16.58;88.86
5484;BME280;2764;48.794;8.326;2022-08-21T00:08:38;100010.97;;;16.55;88.45
5484;BME280;2764;48.794;8.326;2022-08-21T00:09:40;100017.31;;;16.53;88.96
5484;BME280;2764;48.794;8.326;2022-08-21T00:10:43;100002.56;;;16.49;88.98
5484;BME280;2764;48.794;8.326;2022-08-21T00:11:46;100010.59;;;16.47;88.94
5484;BME280;2764;48.794;8.326;2022-08-21T00:12:48;100007.19;;;16.45;89.63
5484;BME280;2764;48.794;8.326;2022-08-21T00:13:50;100010.78;;;16.44;89.87
5484;BME280;2764;48.794;8.326;2022-08-21T00:14:52;100008.13;;;16.44;89.73
5484;BME280;2764;48.794;8.326;2022-08-21T00:15:59;100010.03;;;16.42;90.27
5484;BME280;2764;48.794;8.326;2022-08-21T00:17:01;100012.66;;;16.42;89.36
5484;BME280;2764;48.794;8.326;2022-08-21T00:18:04;100018.06;;;16.41;90.00
5484;BME280;2764;48.794;8.326;2022-08-21T00:19:07;100012.09;;;16.37;89.66
5484;BME280;2764;48.794;8.326;2022-08-21T00:20:11;100007.03;;;16.34;89.57
5484;BME280;2764;48.794;8.326;2022-08-21T00:21:14;100007.84;;;16.35;89.84
5484;BME280;2764;48.794;8.326;2022-08-21T00:22:16;100008.94;;;16.32;89.68
5484;BME280;2764;48.794;8.326;2022-08-21T00:23:18;100012.50;;;16.31;90.14
5484;BME280;2764;48.794;8.326;2022-08-21T00:24:21;100003.84;;;16.29;89.95
5484;BME280;2764;48.794;8.326;2022-08-21T00:25:24;100007.41;;;16.28;89.82
5484;BME280;2764;48.794;8.326;2022-08-21T00:26:26;100011.19;;;16.24;89.93
5484;BME280;2764;48.794;8.326;2022-08-21T00:27:28;100010.03;;;16.28;90.18
5484;BME280;2764;48.794;8.326;2022-08-21T00:28:30;100009.41;;;16.25;90.57
5484;BME280;2764;48.794;8.326;2022-08-21T00:29:32;100001.38;;;16.26;90.59
5484;BME280;2764;48.794;8.326;2022-08-21T00:30:34;99991.41;;;16.17;90.54
5484;BME280;2764;48.794;8.326;2022-08-21T00:31:36;99998.47;;;16.16;91.19
5484;BME280;2764;48.794;8.326;2022-08-21T00:32:39;99992.44;;;16.14;91.05
5484;BME280;2764;48.794;8.326;2022-08-21T00:33:41;99986.81;;;16.06;91.04
5484;BME280;2764;48.794;8.326;2022-08-21T00:34:43;99992.72;;;16.10;90.63
5484;BME280;2764;48.794;8.326;2022-08-21T00:35:44;99991.78;;;16.11;90.73
5484;BME280;2764;48.794;8.326;2022-08-21T00:36:46;99989.34;;;16.08;91.37
5484;BME280;2764;48.794;8.326;2022-08-21T00:37:48;99999.03;;;16.07;90.98
5484;BME280;2764;48.794;8.326;2022-08-21T00:38:50;99994.78;;;16.05;91.03
5484;BME280;2764;48.794;8.326;2022-08-21T00:39:51;99993.09;;;16.04;91.67
5484;BME280;2764;48.794;8.326;2022-08-21T00:40:58;99992.91;;;16.07;91.63
5484;BME280;2764;48.794;8.326;2022-08-21T00:42:14;99992.81;;;16.08;91.22
5484;BME280;2764;48.794;8.326;2022-08-21T00:43:22;99992.91;;;16.07;91.14
5484;BME280;2764;48.794;8.326;2022-08-21T00:44:24;99998.38;;;16.04;91.66
5484;BME280;2764;48.794;8.326;2022-08-21T00:45:26;99992.34;;;16.02;91.32
5484;BME280;2764;48.794;8.326;2022-08-21T00:46:29;99992.34;;;16.02;91.80
5484;BME280;2764;48.794;8.326;2022-08-21T00:47:31;99996.69;;;16.03;91.67
5484;BME280;2764;48.794;8.326;2022-08-21T00:48:33;99999.31;;;16.03;92.17
5484;BME280;2764;48.794;8.326;2022-08-21T00:49:35;99997.53;;;16.03;91.64
5484;BME280;2764;48.794;8.326;2022-08-21T00:50:44;99992.44;;;16.00;92.04
5484;BME280;2764;48.794;8.326;2022-08-21T00:51:54;99995.19;;;15.99;92.23
5484;BME280;2764;48.794;8.326;2022-08-21T00:52:57;99986.06;;;15.90;92.96
5484;BME280;2764;48.794;8.326;2022-08-21T00:54:00;99998.00;;;15.96;92.14
5484;BME280;2764;48.794;8.326;2022-08-21T00:55:07;99991.03;;;15.95;92.00
5484;BME280;2764;48.794;8.326;2022-08-21T00:56:11;100028.91;;;15.94;92.68
5484;BME280;2764;48.794;8.326;2022-08-21T00:57:19;99992.16;;;15.91;92.56
5484;BME280;2764;48.794;8.326;2022-08-21T00:58:26;99986.34;;;15.86;92.61
5484;BME280;2764;48.794;8.326;2022-08-21T00:59:33;99988.00;;;15.87;93.13
5484;BME280;2764;48.794;8.326;2022-08-21T01:00:39;99982.94;;;15.84;93.11
5484;BME280;2764;48.794;8.326;2022-08-21T01:01:41;99990.00;;;15.83;92.82
5484;BME280;2764;48.794;8.326;2022-08-21T01:02:43;99985.66;;;15.82;93.98
5484;BME280;2764;48.794;8.326;2022-08-21T01:03:46;99970.47;;;15.58;93.02
5484;BME280;2764;48.794;8.326;2022-08-21T01:04:50;99988.50;;;15.79;92.83
5484;BME280;2764;48.794;8.326;2022-08-21T01:05:52;99991.31;;;15.76;93.84
5484;BME280;2764;48.794;8.326;2022-08-21T01:06:54;99986.31;;;15.72;93.38
5484;BME280;2764;48.794;8.326;2022-08-21T01:07:56;99990.75;;;15.71;93.78
5484;BME280;2764;48.794;8.326;2022-08-21T01:09:00;99988.22;;;15.70;93.90
5484;BME280;2764;48.794;8.326;2022-08-21T01:10:04;99990.09;;;15.68;93.45
5484;BME280;2764;48.794;8.326;2022-08-21T01:11:06;99987.44;;;15.68;93.58
5484;BME280;2764;48.794;8.326;2022-08-21T01:12:09;99988.22;;;15.70;93.60
5484;BME280;2764;48.794;8.326;2022-08-21T01:13:13;99984.59;;;15.71;93.25
5484;BME280;2764;48.794;8.326;2022-08-21T01:14:15;99981.41;;;15.66;93.80
5484;BME280;2764;48.794;8.326;2022-08-21T01:15:19;99980.06;;;15.59;93.61
5484;BME280;2764;48.794;8.326;2022-08-21T01:16:22;99992.91;;;15.65;93.60
5484;BME280;2764;48.794;8.326;2022-08-21T01:17:24;99982.69;;;15.59;93.68
5484;BME280;2764;48.794;8.326;2022-08-21T01:18:28;99984.41;;;15.60;94.72
5484;BME280;2764;48.794;8.326;2022-08-21T01:19:30;99987.97;;;15.59;94.64
5484;BME280;2764;48.794;8.326;2022-08-21T01:20:33;99980.44;;;15.53;94.65
5484;BME280;2764;48.794;8.326;2022-08-21T01:21:35;99981.47;;;15.50;94.77
5484;BME280;2764;48.794;8.326;2022-08-21T01:22:37;99980.81;;;15.47;94.82
5484;BME280;2764;48.794;8.326;2022-08-21T01:23:46;99981.69;;;15.47;94.91
5484;BME280;2764;48.794;8.326;2022-08-21T01:24:48;99980.72;;;15.48;94.63
5484;BME280;2764;48.794;8.326;2022-08-21T01:25:51;99974.00;;;15.42;94.27
5484;BME280;2764;48.794;8.326;2022-08-21T01:26:53;99979.13;;;15.45;94.48
5484;BME280;2764;48.794;8.326;2022-08-21T01:27:56;99959.69;;;15.32;94.70
5484;BME280;2764;48.794;8.326;2022-08-21T01:30:38;99978.50;;;15.40;94.53
5484;BME280;2764;48.794;8.326;2022-08-21T01:31:40;99984.53;;;15.42;94.34
5484;BME280;2764;48.794;8.326;2022-08-21T01:32:42;99985.47;;;15.41;94.73
5484;BME280;2764;48.794;8.326;2022-08-21T01:33:44;99974.84;;;15.43;94.88
5484;BME280;2764;48.794;8.326;2022-08-21T01:34:48;99977.56;;;15.41;94.71
5484;BME280;2764;48.794;8.326;2022-08-21T01:35:50;99983.78;;;15.40;94.66
5484;BME280;2764;48.794;8.326;2022-08-21T01:36:52;99980.31;;;15.40;94.83
5484;BME280;2764;48.794;8.326;2022-08-21T01:37:54;99976.72;;;15.41;95.12
5484;BME280;2764;48.794;8.326;2022-08-21T01:38:56;99966.63;;;15.33;95.52
5484;BME280;2764;48.794;8.326;2022-08-21T01:39:58;99974.47;;;15.35;95.13
5484;BME280;2764;48.794;8.326;2022-08-21T01:41:00;99983.97;;;15.37;95.28
5484;BME280;2764;48.794;8.326;2022-08-21T01:42:03;99978.78;;;15.36;94.95
5484;BME280;2764;48.794;8.326;2022-08-21T01:43:05;99991.97;;;15.36;94.62
5484;BME280;2764;48.794;8.326;2022-08-21T01:44:07;99987.53;;;15.36;95.61
5484;BME280;2764;48.794;8.326;2022-08-21T01:45:09;99990.34;;;15.33;95.67
5484;BME280;2764;48.794;8.326;2022-08-21T01:46:12;99974.53;;;15.33;95.78
5484;BME280;2764;48.794;8.326;2022-08-21T01:47:15;99988.56;;;15.34;95.01
5484;BME280;2764;48.794;8.326;2022-08-21T01:48:18;99983.41;;;15.32;95.31
5484;BME280;2764;48.794;8.326;2022-08-21T01:49:20;99983.03;;;15.38;94.75
5484;BME280;2764;48.794;8.326;2022-08-21T01:50:22;99983.97;;;15.37;94.69
5484;BME280;2764;48.794;8.326;2022-08-21T01:51:24;99974.53;;;15.33;95.03
5484;BME280;2764;48.794;8.326;2022-08-21T01:52:26;99980.66;;;15.34;94.98
5484;BME280;2764;48.794;8.326;2022-08-21T01:53:28;99988.56;;;15.34;95.05
5484;BME280;2764;48.794;8.326;2022-08-21T01:54:35;99975.38;;;15.34;95.01
5484;BME280;2764;48.794;8.326;2022-08-21T01:55:36;99970.13;;;15.34;95.23
5484;BME280;2764;48.794;8.326;2022-08-21T01:56:41;99977.09;;;15.35;94.80
5484;BME280;2764;48.794;8.326;2022-08-21T01:57:45;99975.38;;;15.34;95.04
5484;BME280;2764;48.794;8.326;2022-08-21T01:58:47;99989.25;;;15.37;94.23
5484;BME280;2764;48.794;8.326;2022-08-21T01:59:49;99960.59;;;15.31;94.03
5484;BME280;2764;48.794;8.326;2022-08-21T02:00:50;99976.91;;;15.38;94.07
5484;BME280;2764;48.794;8.326;2022-08-21T02:01:52;99956.56;;;15.26;94.79
5484;BME280;2764;48.794;8.326;2022-08-21T02:02:55;99968.34;;;15.34;94.94
5484;BME280;2764;48.794;8.326;2022-08-21T02:03:57;99990.34;;;15.33;94.68
5484;BME280;2764;48.794;8.326;2022-08-21T02:05:00;99970.31;;;15.31;94.59
5484;BME280;2764;48.794;8.326;2022-08-21T02:06:03;99979.06;;;15.31;94.76
5484;BME280;2764;48.794;8.326;2022-08-21T02:07:05;99978.47;;;15.26;95.04
5484;BME280;2764;48.794;8.326;2022-08-21T02:08:10;99974.91;;;15.27;95.11
5484;BME280;2764;48.794;8.326;2022-08-21T02:09:13;99973.13;;;15.28;94.38
5484;BME280;2764;48.794;8.326;2022-08-21T02:10:20;99979.25;;;15.28;94.42
5484;BME280;2764;48.794;8.326;2022-08-21T02:11:23;99973.19;;;15.26;94.62
5484;BME280;2764;48.794;8.326;2022-08-21T02:12:24;99976.88;;;15.24;94.93
5484;BME280;2764;48.794;8.326;2022-08-21T02:13:26;99975.66;;;15.29;94.39
5484;BME280;2764;48.794;8.326;2022-08-21T02:14:28;99975.75;;;15.28;95.04
5484;BME280;2764;48.794;8.326;2022-08-21T02:15:33;99972.44;;;15.24;94.95
5484;BME280;2764;48.794;8.326;2022-08-21T02:16:35;99970.84;;;15.22;95.03
5484;BME280;2764;48.794;8.326;2022-08-21T02:17:47;99967.38;;;15.21;95.17
5484;BME280;2764;48.794;8.326;2022-08-21T02:18:49;99966.78;;;15.16;95.30
5484;BME280;2764;48.794;8.326;2022-08-21T02:19:50;99964.44;;;15.12;95.33
5484;BME280;2764;48.794;8.326;2022-08-21T02:20:52;99968.84;;;15.11;95.60
5484;BME280;2764;48.794;8.326;2022-08-21T02:21:56;99960.34;;;15.06;95.78
5484;BME280;2764;48.794;8.326;2022-08-21T02:22:58;99967.41;;;15.06;95.93
5484;BME280;2764;48.794;8.326;2022-08-21T02:24:00;99962.91;;;15.08;95.93
5484;BME280;2764;48.794;8.326;2022-08-21T02:25:03;99965.63;;;15.06;96.06
5484;BME280;2764;48.794;8.326;2022-08-21T02:26:06;99967.41;;;15.06;96.58
5484;BME280;2764;48.794;8.326;2022-08-21T02:27:08;99967.34;;;15.07;95.99
5484;BME280;2764;48.794;8.326;2022-08-21T02:28:14;99959.50;;;15.06;96.03
5484;BME280;2764;48.794;8.326;2022-08-21T02:29:16;99971.91;;;15.04;95.90
5484;BME280;2764;48.794;8.326;2022-08-21T02:30:24;99959.44;;;15.07;96.13
5484;BME280;2764;48.794;8.326;2022-08-21T02:31:26;99957.72;;;15.06;95.76
5484;BME280;2764;48.794;8.326;2022-08-21T02:32:27;99962.06;;;15.07;95.63
5484;BME280;2764;48.794;8.326;2022-08-21T02:33:29;99950.84;;;15.04;95.89
5484;BME280;2764;48.794;8.326;2022-08-21T02:34:31;99957.66;;;15.08;95.34
5484;BME280;2764;48.794;8.326;2022-08-21T02:35:33;99952.44;;;15.06;95.62
5484;BME280;2764;48.794;8.326;2022-08-21T02:36:35;99954.44;;;15.03;95.51
5484;BME280;2764;48.794;8.326;2022-08-21T02:38:10;99965.81;;;15.03;96.42
5484;BME280;2764;48.794;8.326;2022-08-21T02:39:13;99959.88;;;15.00;96.57
5484;BME280;2764;48.794;8.326;2022-08-21T02:40:17;99952.06;;;14.98;96.12
5484;BME280;2764;48.794;8.326;2022-08-21T02:41:20;99952.91;;;14.99;95.77
5484;BME280;2764;48.794;8.326;2022-08-21T02:42:22;99955.44;;;15.00;95.39
5484;BME280;2764;48.794;8.326;2022-08-21T02:43:25;99953.56;;;15.02;95.64
5484;BME280;2764;48.794;8.326;2022-08-21T02:44:27;99950.84;;;15.04;95.50
5484;BME280;2764;48.794;8.326;2022-08-21T02:45:36;99948.03;;;15.07;94.74
5484;BME280;2764;48.794;8.326;2022-08-21T02:46:38;99947.44;;;15.02;94.35
5484;BME280;2764;48.794;8.326;2022-08-21T02:47:40;99946.44;;;15.04;94.39
5484;BME280;2764;48.794;8.326;2022-08-21T02:48:42;99950.78;;;15.05;94.95
5484;BME280;2764;48.794;8.326;2022-08-21T02:49:43;99947.13;;;15.08;94.44
5484;BME280;2764;48.794;8.326;2022-08-21T02:50:53;99944.56;;;15.06;94.45
5484;BME280;2764;48.794;8.326;2022-08-21T02:51:55;99952.19;;;15.11;94.06
5484;BME280;2764;48.794;8.326;2022-08-21T02:52:57;99952.19;;;15.11;94.04
5484;BME280;2764;48.794;8.326;2022-08-21T02:53:59;99942.66;;;15.08;94.66
5484;BME280;2764;48.794;8.326;2022-08-21T02:55:01;99949.81;;;15.06;94.71
5484;BME280;2764;48.794;8.326;2022-08-21T02:56:07;99954.22;;;15.06;94.78
5484;BME280;2764;48.794;8.326;2022-08-21T02:57:09;99938.78;;;15.00;95.22
5484;BME280;2764;48.794;8.326;2022-08-21T02:58:11;99953.41;;;15.05;94.88
5484;BME280;2764;48.794;8.326;2022-08-21T02:59:13;99953.41;;;15.05;94.52
5484;BME280;2764;48.794;8.326;2022-08-21T03:00:16;99957.72;;;15.06;94.36
5484;BME280;2764;48.794;8.326;2022-08-21T03:01:18;99957.66;;;15.08;94.45
5484;BME280;2764;48.794;8.326;2022-08-21T03:02:21;99955.03;;;15.08;94.74
5484;BME280;2764;48.794;8.326;2022-08-21T03:03:23;99960.00;;;15.12;93.87
5484;BME280;2764;48.794;8.326;2022-08-21T03:04:24;99952.19;;;15.11;94.23
5484;BME280;2764;48.794;8.326;2022-08-21T03:05:27;99955.41;;;15.16;92.82
5484;BME280;2764;48.794;8.326;2022-08-21T03:06:29;99952.31;;;15.23;92.58
5484;BME280;2764;48.794;8.326;2022-08-21T03:07:31;99955.72;;;15.25;92.29
5484;BME280;2764;48.794;8.326;2022-08-21T03:08:33;99960.13;;;15.25;92.59
5484;BME280;2764;48.794;8.326;2022-08-21T03:09:34;99947.91;;;15.24;93.43
5484;BME280;2764;48.794;8.326;2022-08-21T03:10:41;99951.63;;;15.20;92.97
5484;BME280;2764;48.794;8.326;2022-08-21T03:11:43;99953.72;;;15.15;93.56
5484;BME280;2764;48.794;8.326;2022-08-21T03:12:46;99953.13;;;15.10;93.21
5484;BME280;2764;48.794;8.326;2022-08-21T03:13:48;99952.28;;;15.09;92.87
5484;BME280;2764;48.794;8.326;2022-08-21T03:14:49;99955.78;;;15.10;92.60
5484;BME280;2764;48.794;8.326;2022-08-21T03:15:51;99956.59;;;15.10;92.85
5484;BME280;2764;48.794;8.326;2022-08-21T03:16:53;99955.56;;;15.13;93.07
5484;BME280;2764;48.794;8.326;2022-08-21T03:17:54;99953.97;;;15.10;92.40
5484;BME280;2764;48.794;8.326;2022-08-21T03:18:56;99952.94;;;15.13;92.96
5484;BME280;2764;48.794;8.326;2022-08-21T03:19:58;99953.03;;;15.11;92.67
5484;BME280;2764;48.794;8.326;2022-08-21T03:21:00;99955.50;;;15.14;92.28
5484;BME280;2764;48.794;8.326;2022-08-21T03:22:01;99955.50;;;15.14;92.30
5484;BME280;2764;48.794;8.326;2022-08-21T03:23:05;99956.34;;;15.15;92.11
5484;BME280;2764;48.794;8.326;2022-08-21T03:24:14;99960.94;;;15.11;92.87
5484;BME280;2764;48.794;8.326;2022-08-21T03:25:23;99958.47;;;15.08;93.51
5484;BME280;2764;48.794;8.326;2022-08-21T03:26:41;99956.97;;;15.04;93.44
5484;BME280;2764;48.794;8.326;2022-08-21T03:27:42;99957.13;;;15.01;93.77
5484;BME280;2764;48.794;8.326;2022-08-21T03:28:44;99952.06;;;14.98;94.03
5484;BME280;2764;48.794;8.326;2022-08-21T03:29:46;99961.16;;;14.93;94.28
5484;BME280;2764;48.794;8.326;2022-08-21T03:30:50;99957.66;;;14.92;94.74
5484;BME280;2764;48.794;8.326;2022-08-21T03:31:52;99954.22;;;14.92;94.27
5484;BME280;2764;48.794;8.326;2022-08-21T03:32:55;99959.53;;;14.90;94.51
5484;BME280;2764;48.794;8.326;2022-08-21T03:33:57;99949.38;;;14.84;94.64
5484;BME280;2764;48.794;8.326;2022-08-21T03:34:59;99949.28;;;14.86;94.50
5484;BME280;2764;48.794;8.326;2022-08-21T03:36:05;99952.94;;;14.83;94.47
5484;BME280;2764;48.794;8.326;2022-08-21T03:37:08;99956.53;;;14.82;94.95
5484;BME280;2764;48.794;8.326;2022-08-21T03:38:11;99957.53;;;14.80;94.86
5484;BME280;2764;48.794;8.326;2022-08-21T03:39:15;99960.06;;;14.81;94.74
5484;BME280;2764;48.794;8.326;2022-08-21T03:40:18;99961.94;;;14.79;95.06
5484;BME280;2764;48.794;8.326;2022-08-21T03:41:21;99962.88;;;14.78;95.16
5484;BME280;2764;48.794;8.326;2022-08-21T03:42:23;99956.03;;;14.75;95.24
5484;BME280;2764;48.794;8.326;2022-08-21T03:43:25;99960.44;;;14.75;95.52
5484;BME280;2764;48.794;8.326;2022-08-21T03:44:27;99936.50;;;14.64;94.70
5484;BME280;2764;48.794;8.326;2022-08-21T03:45:32;99963.06;;;14.75;94.74
5484;BME280;2764;48.794;8.326;2022-08-21T03:46:33;99953.41;;;14.75;94.81
5484;BME280;2764;48.794;8.326;2022-08-21T03:47:35;99959.50;;;14.76;95.08
5484;BME280;2764;48.794;8.326;2022-08-21T03:48:39;99958.66;;;14.75;95.19
5484;BME280;2764;48.794;8.326;2022-08-21T03:49:40;99954.81;;;14.81;93.99
5484;BME280;2764;48.794;8.326;2022-08-21T03:50:43;99954.66;;;14.84;93.59
5484;BME280;2764;48.794;8.326;2022-08-21T03:51:46;99951.16;;;14.84;94.20
5484;BME280;2764;48.794;8.326;2022-08-21T03:52:59;99958.19;;;14.83;94.36
5484;BME280;2764;48.794;8.326;2022-08-21T03:54:01;99948.41;;;14.85;94.25
5484;BME280;2764;48.794;8.326;2022-08-21T03:55:03;99958.19;;;14.83;94.08
5484;BME280;2764;48.794;8.326;2022-08-21T03:56:06;99947.28;;;14.75;94.20
5484;BME280;2764;48.794;8.326;2022-08-21T03:57:08;99953.28;;;14.77;94.42
5484;BME280;2764;48.794;8.326;2022-08-21T03:58:10;99948.97;;;14.76;94.53
5484;BME280;2764;48.794;8.326;2022-08-21T03:59:17;99936.31;;;14.67;95.08
5484;BME280;2764;48.794;8.326;2022-08-21T04:00:20;99954.41;;;14.73;95.87
5484;BME280;2764;48.794;8.326;2022-08-21T04:01:21;99959.09;;;14.68;95.95
5484;BME280;2764;48.794;8.326;2022-08-21T04:02:23;99953.13;;;14.64;96.23
5484;BME280;2764;48.794;8.326;2022-08-21T04:03:26;99958.59;;;14.61;96.29
5484;BME280;2764;48.794;8.326;2022-08-21T04:04:28;99950.44;;;14.66;95.10
5484;BME280;2764;48.794;8.326;2022-08-21T04:05:30;99950.44;;;14.66;95.49
5484;BME280;2764;48.794;8.326;2022-08-21T04:06:32;99951.47;;;14.63;95.41
5484;BME280;2764;48.794;8.326;2022-08-21T04:07:38;99954.94;;;14.64;95.60
5484;BME280;2764;48.794;8.326;2022-08-21T04:08:39;99963.75;;;14.63;95.65
5484;BME280;2764;48.794;8.326;2022-08-21T04:09:43;99956.88;;;14.60;96.01
5484;BME280;2764;48.794;8.326;2022-08-21T04:10:47;99961.47;;;14.57;95.98
5484;BME280;2764;48.794;8.326;2022-08-21T04:11:50;99949.59;;;14.50;95.96
5484;BME280;2764;48.794;8.326;2022-08-21T04:12:52;99963.34;;;14.55;95.83
5484;BME280;2764;48.794;8.326;2022-08-21T04:13:54;99959.94;;;14.53;96.66
5484;BME280;2764;48.794;8.326;2022-08-21T04:14:56;99958.91;;;14.55;96.48
5484;BME280;2764;48.794;8.326;2022-08-21T04:15:57;99965.13;;;14.54;96.43
5484;BME280;2764;48.794;8.326;2022-08-21T04:16:59;99964.19;;;14.55;95.86
5484;BME280;2764;48.794;8.326;2022-08-21T04:18:02;99961.66;;;14.54;96.82
5484;BME280;2764;48.794;8.326;2022-08-21T04:19:04;99964.28;;;14.54;96.34
5484;BME280;2764;48.794;8.326;2022-08-21T04:20:06;99970.41;;;14.54;96.54
5484;BME280;2764;48.794;8.326;2022-08-21T04:21:10;99967.84;;;14.53;96.68
5484;BME280;2764;48.794;8.326;2022-08-21T04:22:14;99967.84;;;14.53;96.57
5484;BME280;2764;48.794;8.326;2022-08-21T04:23:16;99972.09;;;14.55;95.54
5484;BME280;2764;48.794;8.326;2022-08-21T04:24:24;99973.94;;;14.69;95.05
5484;BME280;2764;48.794;8.326;2022-08-21T04:25:30;99975.88;;;14.81;93.79
5484;BME280;2764;48.794;8.326;2022-08-21T04:26:32;99971.09;;;14.88;93.38
5484;BME280;2764;48.794;8.326;2022-08-21T04:27:35;99978.56;;;14.95;92.94
5484;BME280;2764;48.794;8.326;2022-08-21T04:28:37;99982.06;;;14.96;93.07
5484;BME280;2764;48.794;8.326;2022-08-21T04:29:38;99975.78;;;14.98;93.16
5484;BME280;2764;48.794;8.326;2022-08-21T04:30:40;99983.47;;;15.01;92.50
5484;BME280;2764;48.794;8.326;2022-08-21T04:31:42;99981.78;;;15.00;92.47
5484;BME280;2764;48.794;8.326;2022-08-21T04:32:47;99988.94;;;14.98;92.51
5484;BME280;2764;48.794;8.326;2022-08-21T04:33:50;99988.09;;;14.98;93.44
5484;BME280;2764;48.794;8.326;2022-08-21T04:35:05;99985.63;;;14.95;93.65
5484;BME280;2764;48.794;8.326;2022-08-21T04:36:07;99990.03;;;14.94;93.28
5484;BME280;2764;48.794;8.326;2022-08-21T04:37:09;99989.28;;;14.92;92.89
5484;BME280;2764;48.794;8.326;2022-08-21T04:38:10;99985.97;;;14.89;93.26
5484;BME280;2764;48.794;8.326;2022-08-21T04:39:12;99988.78;;;14.86;93.58
5484;BME280;2764;48.794;8.326;2022-08-21T04:40:16;99983.78;;;14.81;93.36
5484;BME280;2764;48.794;8.326;2022-08-21T04:41:18;99994.41;;;14.80;94.05
5484;BME280;2764;48.794;8.326;2022-08-21T04:42:28;99985.75;;;14.77;94.28
5484;BME280;2764;48.794;8.326;2022-08-21T04:43:30;99992.63;;;14.80;94.80
5484;BME280;2764;48.794;8.326;2022-08-21T04:44:31;99994.47;;;14.78;94.57
5484;BME280;2764;48.794;8.326;2022-08-21T04:45:37;99985.75;;;14.77;93.97
5484;BME280;2764;48.794;8.326;2022-08-21T04:46:39;100000.34;;;14.83;94.08
5484;BME280;2764;48.794;8.326;2022-08-21T04:47:41;99995.06;;;14.83;93.79
5484;BME280;2764;48.794;8.326;2022-08-21T04:48:53;99997.78;;;14.82;93.65
5484;BME280;2764;48.794;8.326;2022-08-21T04:49:55;99992.53;;;14.82;93.61
5484;BME280;2764;48.794;8.326;2022-08-21T04:51:15;100003.06;;;14.82;93.93
5484;BME280;2764;48.794;8.326;2022-08-21T04:52:21;99996.94;;;14.81;93.84
5484;BME280;2764;48.794;8.326;2022-08-21T04:53:30;99988.44;;;14.76;93.89
5484;BME280;2764;48.794;8.326;2022-08-21T04:54:33;99991.41;;;14.86;93.94
5484;BME280;2764;48.794;8.326;2022-08-21T04:55:34;99993.28;;;14.84;94.03
5484;BME280;2764;48.794;8.326;2022-08-21T04:56:43;99999.31;;;14.86;94.14
5484;BME280;2764;48.794;8.326;2022-08-21T04:57:47;100001.09;;;14.85;93.91
5484;BME280;2764;48.794;8.326;2022-08-21T04:58:52;100008.81;;;14.88;93.79
5484;BME280;2764;48.794;8.326;2022-08-21T04:59:54;100004.56;;;14.86;93.81
5484;BME280;2764;48.794;8.326;2022-08-21T05:00:58;99966.88;;;14.69;93.40
5484;BME280;2764;48.794;8.326;2022-08-21T05:02:02;100004.31;;;14.90;93.60
5484;BME280;2764;48.794;8.326;2022-08-21T05:03:06;100006.94;;;14.90;92.80
5484;BME280;2764;48.794;8.326;2022-08-21T05:04:12;100003.56;;;14.88;93.27
5484;BME280;2764;48.794;8.326;2022-08-21T05:05:15;100006.28;;;14.87;94.04
5484;BME280;2764;48.794;8.326;2022-08-21T05:06:17;100009.94;;;14.84;93.83
5484;BME280;2764;48.794;8.326;2022-08-21T05:07:26;100012.41;;;14.87;94.01
5484;BME280;2764;48.794;8.326;2022-08-21T05:08:45;100006.34;;;14.85;93.75
5484;BME280;2764;48.794;8.326;2022-08-21T05:09:48;100010.88;;;14.83;94.41
5484;BME280;2764;48.794;8.326;2022-08-21T05:10:51;99971.81;;;14.60;94.57
5484;BME280;2764;48.794;8.326;2022-08-21T05:12:07;100010.88;;;14.83;94.73
5484;BME280;2764;48.794;8.326;2022-08-21T05:13:10;100015.31;;;14.83;94.99
5484;BME280;2764;48.794;8.326;2022-08-21T05:14:13;100014.44;;;14.82;94.83
5484;BME280;2764;48.794;8.326;2022-08-21T05:15:15;100022.09;;;14.87;94.74
5484;BME280;2764;48.794;8.326;2022-08-21T05:16:18;100011.88;;;14.81;94.37
5484;BME280;2764;48.794;8.326;2022-08-21T05:17:38;100012.13;;;14.76;94.31
5484;BME280;2764;48.794;8.326;2022-08-21T05:18:40;100014.25;;;14.85;93.98
5484;BME280;2764;48.794;8.326;2022-08-21T05:19:41;100019.34;;;14.88;93.97
5484;BME280;2764;48.794;8.326;2022-08-21T05:20:43;100022.75;;;14.90;93.53
5484;BME280;2764;48.794;8.326;2022-08-21T05:21:47;100022.75;;;14.90;93.81
5484;BME280;2764;48.794;8.326;2022-08-21T05:22:49;100018.25;;;14.92;93.79
5484;BME280;2764;48.794;8.326;2022-08-21T05:23:50;100027.69;;;14.96;93.52
5484;BME280;2764;48.794;8.326;2022-08-21T05:24:52;100030.06;;;15.01;93.03
5484;BME280;2764;48.794;8.326;2022-08-21T05:25:54;99997.63;;;14.69;93.46
5484;BME280;2764;48.794;8.326;2022-08-21T05:26:57;100033.44;;;15.03;93.04
5484;BME280;2764;48.794;8.326;2022-08-21T05:27:59;100034.09;;;15.06;93.34
5484;BME280;2764;48.794;8.326;2022-08-21T05:29:01;100020.94;;;15.06;92.84
5484;BME280;2764;48.794;8.326;2022-08-21T05:30:08;100029.44;;;15.11;93.30
5484;BME280;2764;48.794;8.326;2022-08-21T05:31:10;100027.66;;;15.12;92.85
5484;BME280;2764;48.794;8.326;2022-08-21T05:32:13;100026.63;;;15.14;92.93
5484;BME280;2764;48.794;8.326;2022-08-21T05:33:15;100025.69;;;15.15;92.11
5484;BME280;2764;48.794;8.326;2022-08-21T05:34:19;100027.22;;;15.19;91.84
5484;BME280;2764;48.794;8.326;2022-08-21T05:35:22;100013.19;;;15.19;91.56
5484;BME280;2764;48.794;8.326;2022-08-21T05:36:24;100012.72;;;15.26;91.29
5484;BME280;2764;48.794;8.326;2022-08-21T05:37:25;100029.72;;;15.36;91.04
5484;BME280;2764;48.794;8.326;2022-08-21T05:38:27;100020.50;;;15.43;90.54
5484;BME280;2764;48.794;8.326;2022-08-21T05:39:30;100014.25;;;15.46;90.79
5484;BME280;2764;48.794;8.326;2022-08-21T05:40:51;100005.78;;;15.55;89.80
5484;BME280;2764;48.794;8.326;2022-08-21T05:41:53;100014.53;;;15.56;90.06
5484;BME280;2764;48.794;8.326;2022-08-21T05:42:55;100010.88;;;15.58;89.86
5484;BME280;2764;48.794;8.326;2022-08-21T05:43:57;100016.63;;;15.65;89.28
5484;BME280;2764;48.794;8.326;2022-08-21T05:44:59;100016.47;;;15.68;89.47
5484;BME280;2764;48.794;8.326;2022-08-21T05:46:01;100006.66;;;15.70;89.68